createdAt,value
2019-05-22T00:00:31.524Z,12.05
2019-05-22T00:01:31.547Z,12.08
2019-05-22T00:02:31.625Z,12.06
2019-05-22T00:03:31.641Z,12.12
2019-05-22T00:04:31.689Z,12.09
2019-05-22T00:05:31.737Z,12.08
2019-05-22T00:06:31.790Z,12.08
2019-05-22T00:07:31.865Z,12.06
2019-05-22T00:08:31.945Z,12.11
2019-05-22T00:09:31.929Z,12.11
2019-05-22T00:10:31.973Z,12.04
2019-05-22T00:11:32.026Z,11.99
2019-05-22T00:12:45.746Z,11.96
2019-05-22T00:13:32.113Z,12.05
2019-05-22T00:14:32.159Z,12.01
2019-05-22T00:15:32.282Z,12.01
2019-05-22T00:16:32.253Z,12.06
2019-05-22T00:17:32.336Z,12.04
2019-05-22T00:18:32.349Z,12.12
2019-05-22T00:19:32.394Z,12.12
2019-05-22T00:20:32.442Z,12.06
2019-05-22T00:21:32.488Z,12.02
2019-05-22T00:22:32.570Z,12.01
2019-05-22T00:23:32.589Z,11.99
2019-05-22T00:24:32.631Z,12.01
2019-05-22T00:25:33.249Z,11.97
2019-05-22T00:26:32.774Z,12.05
2019-05-22T00:27:32.793Z,11.99
2019-05-22T00:28:32.837Z,12.02
2019-05-22T00:29:32.869Z,12.01
2019-05-22T00:30:32.916Z,12.04
2019-05-22T00:31:32.965Z,12.01
2019-05-22T00:32:33.014Z,12.06
2019-05-22T00:33:36.186Z,11.96
2019-05-22T00:34:33.114Z,11.94
2019-05-22T00:35:33.165Z,12.02
2019-05-22T00:36:33.197Z,11.96
2019-05-22T00:37:33.246Z,12.01
2019-05-22T00:38:33.307Z,12.04
2019-05-22T00:39:33.346Z,12.04
2019-05-22T00:40:33.416Z,12.09
2019-05-22T00:41:33.434Z,12.02
2019-05-22T00:42:33.482Z,12.09
2019-05-22T00:43:33.548Z,12.08
2019-05-22T00:44:33.579Z,12.04
2019-05-22T00:45:33.622Z,12.09
2019-05-22T00:46:33.675Z,12.09
2019-05-22T00:47:33.713Z,12.09
2019-05-22T00:48:33.777Z,12.12
2019-05-22T00:49:33.812Z,12.08
2019-05-22T00:50:33.855Z,12.06
2019-05-22T00:51:33.905Z,12.04
2019-05-22T00:52:33.953Z,12.06
2019-05-22T00:53:34.050Z,12.09
2019-05-22T00:54:34.043Z,12.05
2019-05-22T00:55:34.123Z,12.06
2019-05-22T00:56:34.139Z,11.94
2019-05-22T00:57:34.184Z,12.06
2019-05-22T00:58:34.261Z,12.12
2019-05-22T00:59:34.277Z,12.01
2019-05-22T01:00:34.954Z,12.01
2019-05-22T01:01:34.373Z,12.06
2019-05-22T01:02:34.420Z,11.99
2019-05-22T01:03:34.606Z,11.96
2019-05-22T01:04:34.516Z,11.99
2019-05-22T01:05:34.564Z,12.01
2019-05-22T01:06:34.609Z,11.99
2019-05-22T01:07:34.653Z,12.05
2019-05-22T01:08:34.725Z,12.01
2019-05-22T01:09:34.770Z,11.96
2019-05-22T01:10:34.802Z,11.99
2019-05-22T01:11:34.842Z,11.97
2019-05-22T01:12:34.891Z,11.99
2019-05-22T01:13:34.941Z,12.08
2019-05-22T01:14:42.763Z,12.06
2019-05-22T01:15:35.040Z,12.04
2019-05-22T01:16:35.113Z,12.08
2019-05-22T01:17:35.202Z,11.99
2019-05-22T01:18:35.189Z,11.94
2019-05-22T01:19:35.240Z,11.99
2019-05-22T01:20:35.268Z,11.99
2019-05-22T01:21:35.324Z,11.99
2019-05-22T01:22:35.375Z,11.99
2019-05-22T01:23:35.417Z,12.06
2019-05-22T01:24:35.480Z,12.08
2019-05-22T01:25:35.511Z,12.02
2019-05-22T01:26:35.569Z,12.08
2019-05-22T01:27:35.601Z,12.01
2019-05-22T01:28:35.688Z,11.96
2019-05-22T01:29:35.717Z,11.99
2019-05-22T01:30:35.743Z,12.09
2019-05-22T01:31:35.785Z,12.13
2019-05-22T01:32:35.831Z,12.08
2019-05-22T01:33:35.884Z,12.13
2019-05-22T01:34:35.947Z,12.06
2019-05-22T01:35:36.066Z,12.11
2019-05-22T01:36:36.018Z,12.12
2019-05-22T01:37:36.067Z,12.05
2019-05-22T01:38:36.127Z,12.08
2019-05-22T01:39:36.181Z,12.06
2019-05-22T01:40:36.210Z,12.08
2019-05-22T01:41:36.260Z,12.08
2019-05-22T01:42:36.356Z,12.01
2019-05-22T01:43:36.358Z,12.06
2019-05-22T01:44:36.429Z,12.01
2019-05-22T01:45:36.445Z,11.99
2019-05-22T01:46:36.497Z,12.08
2019-05-22T01:47:36.538Z,12.02
2019-05-22T01:48:36.586Z,12.08
2019-05-22T01:49:36.662Z,12.01
2019-05-22T01:50:36.703Z,12.01
2019-05-22T01:51:36.731Z,12.01
2019-05-22T01:52:36.785Z,12.01
2019-05-22T01:53:36.828Z,11.99
2019-05-22T01:54:36.871Z,12.02
2019-05-22T01:55:36.937Z,12.01
2019-05-22T01:56:36.963Z,12.01
2019-05-22T01:57:37.011Z,12.02
2019-05-22T01:58:37.091Z,11.97
2019-05-22T01:59:37.102Z,11.96
2019-05-22T02:00:37.178Z,11.97
2019-05-22T02:01:37.204Z,11.96
2019-05-22T02:02:37.246Z,12.06
2019-05-22T02:03:37.293Z,11.97
2019-05-22T02:04:37.349Z,11.90
2019-05-22T02:05:37.499Z,11.90
2019-05-22T02:06:37.442Z,12.05
2019-05-22T02:07:37.480Z,12.01
2019-05-22T02:08:37.539Z,11.97
2019-05-22T02:09:37.578Z,12.02
2019-05-22T02:10:37.645Z,11.94
2019-05-22T02:11:37.679Z,11.89
2019-05-22T02:12:37.718Z,11.99
2019-05-22T02:13:37.767Z,12.02
2019-05-22T02:14:37.819Z,11.96
2019-05-22T02:15:37.876Z,11.87
2019-05-22T02:16:37.940Z,11.94
2019-05-22T02:17:38.485Z,11.94
2019-05-22T02:18:38.005Z,11.96
2019-05-22T02:19:38.076Z,11.97
2019-05-22T02:20:38.114Z,11.96
2019-05-22T02:21:38.143Z,11.93
2019-05-22T02:22:38.194Z,11.93
2019-05-22T02:23:38.239Z,11.93
2019-05-22T02:24:38.295Z,11.80
2019-05-22T02:25:38.352Z,11.87
2019-05-22T02:26:38.380Z,11.83
2019-05-22T02:27:38.425Z,11.83
2019-05-22T02:28:38.475Z,11.87
2019-05-22T02:29:38.519Z,11.85
2019-05-22T02:30:38.722Z,11.89
2019-05-22T02:31:38.638Z,11.85
2019-05-22T02:32:38.661Z,11.86
2019-05-22T02:33:38.711Z,11.83
2019-05-22T02:34:38.805Z,11.85
2019-05-22T02:35:38.801Z,11.83
2019-05-22T02:36:38.868Z,11.86
2019-05-22T02:37:38.895Z,11.93
2019-05-22T02:38:38.943Z,11.99
2019-05-22T02:39:38.989Z,11.90
2019-05-22T02:40:39.122Z,11.96
2019-05-22T02:41:39.114Z,11.89
2019-05-22T02:42:39.138Z,11.86
2019-05-22T02:43:39.188Z,11.89
2019-05-22T02:44:39.241Z,12.02
2019-05-22T02:45:39.273Z,11.93
2019-05-22T02:46:39.337Z,12.04
2019-05-22T02:47:39.405Z,11.89
2019-05-22T02:48:42.250Z,11.89
2019-05-22T02:49:39.565Z,11.96
2019-05-22T02:50:39.505Z,12.05
2019-05-22T02:51:39.582Z,11.99
2019-05-22T02:52:39.599Z,11.97
2019-05-22T02:53:39.654Z,11.99
2019-05-22T02:54:39.700Z,11.93
2019-05-22T02:55:39.748Z,12.01
2019-05-22T02:56:39.840Z,11.96
2019-05-22T02:57:39.836Z,12.06
2019-05-22T02:58:39.886Z,11.94
2019-05-22T02:59:39.932Z,11.99
2019-05-22T03:00:39.978Z,11.90
2019-05-22T03:01:40.046Z,11.97
2019-05-22T03:02:40.082Z,11.96
2019-05-22T03:03:40.125Z,11.99
2019-05-22T03:04:40.166Z,11.90
2019-05-22T03:05:40.214Z,11.94
2019-05-22T03:06:40.303Z,11.90
2019-05-22T03:07:40.326Z,11.99
2019-05-22T03:08:40.387Z,11.97
2019-05-22T03:09:40.399Z,11.96
2019-05-22T03:10:40.458Z,11.89
2019-05-22T03:11:40.519Z,11.87
2019-05-22T03:12:40.565Z,11.86
2019-05-22T03:13:40.588Z,11.96
2019-05-22T03:14:40.639Z,11.90
2019-05-22T03:15:40.682Z,11.97
2019-05-22T03:16:40.739Z,11.96
2019-05-22T03:17:40.807Z,12.02
2019-05-22T03:18:40.867Z,11.90
2019-05-22T03:19:40.876Z,11.89
2019-05-22T03:20:40.919Z,11.97
2019-05-22T03:21:40.968Z,11.97
2019-05-22T03:22:41.051Z,11.97
2019-05-22T03:23:41.072Z,11.82
2019-05-22T03:24:41.119Z,11.89
2019-05-22T03:25:41.152Z,11.89
2019-05-22T03:26:41.209Z,11.89
2019-05-22T03:27:41.274Z,11.89
2019-05-22T03:28:41.432Z,11.83
2019-05-22T03:29:41.352Z,11.82
2019-05-22T03:30:41.417Z,11.86
2019-05-22T03:31:41.448Z,11.96
2019-05-22T03:32:43.761Z,11.85
2019-05-22T03:33:41.538Z,11.94
2019-05-22T03:34:41.598Z,11.94
2019-05-22T03:35:41.634Z,11.96
2019-05-22T03:36:41.671Z,11.89
2019-05-22T03:37:41.739Z,11.94
2019-05-22T03:38:41.770Z,11.93
2019-05-22T03:39:41.818Z,11.94
2019-05-22T03:40:41.870Z,11.85
2019-05-22T03:41:41.916Z,11.83
2019-05-22T03:42:41.979Z,11.80
2019-05-22T03:43:42.001Z,11.77
2019-05-22T03:44:42.053Z,11.80
2019-05-22T03:45:42.097Z,11.85
2019-05-22T03:46:42.168Z,11.78
2019-05-22T03:47:42.216Z,11.78
2019-05-22T03:48:42.237Z,11.85
2019-05-22T03:49:42.297Z,11.75
2019-05-22T03:50:42.332Z,11.77
2019-05-22T03:51:42.391Z,11.72
2019-05-22T03:52:42.446Z,11.83
2019-05-22T03:53:42.493Z,11.83
2019-05-22T03:54:42.527Z,11.87
2019-05-22T03:55:42.561Z,11.87
2019-05-22T03:56:42.681Z,11.86
2019-05-22T03:57:42.705Z,11.86
2019-05-22T03:58:42.728Z,11.90
2019-05-22T03:59:42.773Z,11.85
2019-05-22T04:00:43.705Z,11.83
2019-05-22T04:01:42.855Z,11.83
2019-05-22T04:02:42.895Z,11.80
2019-05-22T04:03:42.970Z,11.77
2019-05-22T04:04:42.990Z,11.82
2019-05-22T04:05:43.045Z,11.77
2019-05-22T04:06:43.083Z,11.80
2019-05-22T04:07:43.133Z,11.83
2019-05-22T04:08:43.319Z,11.75
2019-05-22T04:09:43.244Z,11.80
2019-05-22T04:10:43.346Z,11.78
2019-05-22T04:11:43.316Z,11.78
2019-05-22T04:12:43.374Z,11.72
2019-05-22T04:13:43.431Z,11.74
2019-05-22T04:14:43.496Z,11.77
2019-05-22T04:15:43.503Z,11.77
2019-05-22T04:16:43.557Z,11.77
2019-05-22T04:17:43.604Z,11.75
2019-05-22T04:18:43.685Z,11.83
2019-05-22T04:19:49.951Z,11.80
2019-05-22T04:20:43.736Z,11.71
2019-05-22T04:21:43.784Z,11.72
2019-05-22T04:22:43.840Z,11.77
2019-05-22T04:23:43.929Z,11.80
2019-05-22T04:24:43.924Z,11.74
2019-05-22T04:25:43.981Z,11.78
2019-05-22T04:26:44.028Z,11.74
2019-05-22T04:27:44.081Z,11.68
2019-05-22T04:28:44.152Z,11.72
2019-05-22T04:29:44.162Z,11.72
2019-05-22T04:30:44.210Z,11.77
2019-05-22T04:31:44.261Z,11.74
2019-05-22T04:32:44.306Z,11.67
2019-05-22T04:33:44.376Z,11.72
2019-05-22T04:34:44.418Z,11.72
2019-05-22T04:35:44.499Z,11.74
2019-05-22T04:36:44.488Z,11.67
2019-05-22T04:37:44.537Z,11.68
2019-05-22T04:38:44.591Z,11.70
2019-05-22T04:39:44.650Z,11.72
2019-05-22T04:40:44.698Z,11.74
2019-05-22T04:41:44.723Z,11.72
2019-05-22T04:42:44.773Z,11.77
2019-05-22T04:43:44.814Z,11.75
2019-05-22T04:44:44.865Z,11.75
2019-05-22T04:45:45.032Z,11.77
2019-05-22T04:46:44.969Z,11.77
2019-05-22T04:47:45.054Z,11.72
2019-05-22T04:48:46.434Z,11.80
2019-05-22T04:49:45.098Z,11.80
2019-05-22T04:50:45.172Z,11.80
2019-05-22T04:51:45.189Z,11.75
2019-05-22T04:52:45.240Z,11.77
2019-05-22T04:53:45.284Z,11.78
2019-05-22T04:54:45.335Z,11.74
2019-05-22T04:55:45.406Z,11.75
2019-05-22T04:56:45.428Z,11.78
2019-05-22T04:57:45.470Z,11.71
2019-05-22T04:58:45.519Z,11.82
2019-05-22T04:59:45.567Z,11.77
2019-05-22T05:00:45.645Z,11.77
2019-05-22T05:01:45.667Z,11.75
2019-05-22T05:02:45.711Z,11.75
2019-05-22T05:03:45.803Z,11.77
2019-05-22T05:04:45.799Z,11.78
2019-05-22T05:05:45.876Z,11.77
2019-05-22T05:06:45.894Z,11.75
2019-05-22T05:07:45.944Z,11.77
2019-05-22T05:08:45.989Z,11.75
2019-05-22T05:09:46.042Z,11.82
2019-05-22T05:10:46.113Z,11.86
2019-05-22T05:11:46.130Z,11.85
2019-05-22T05:12:46.175Z,11.85
2019-05-22T05:13:46.222Z,11.85
2019-05-22T05:14:46.318Z,11.87
2019-05-22T05:15:46.330Z,11.89
2019-05-22T05:16:46.390Z,11.82
2019-05-22T05:17:46.407Z,11.97
2019-05-22T05:18:46.461Z,11.85
2019-05-22T05:19:46.504Z,11.86
2019-05-22T05:20:46.592Z,11.90
2019-05-22T05:21:46.616Z,11.93
2019-05-22T05:22:46.647Z,11.96
2019-05-22T05:23:46.689Z,12.01
2019-05-22T05:24:46.739Z,11.97
2019-05-22T05:25:46.787Z,11.89
2019-05-22T05:26:46.851Z,11.83
2019-05-22T05:27:46.882Z,11.89
2019-05-22T05:28:46.924Z,11.85
2019-05-22T05:29:46.975Z,11.86
2019-05-22T05:30:47.023Z,11.89
2019-05-22T05:31:47.090Z,11.94
2019-05-22T05:32:47.113Z,11.89
2019-05-22T05:33:47.167Z,11.96
2019-05-22T05:34:47.219Z,11.93
2019-05-22T05:35:47.259Z,11.89
2019-05-22T05:36:47.545Z,11.94
2019-05-22T05:37:47.363Z,12.05
2019-05-22T05:38:47.396Z,11.99
2019-05-22T05:39:47.442Z,11.93
2019-05-22T05:40:47.496Z,12.02
2019-05-22T05:41:47.647Z,11.89
2019-05-22T05:42:47.585Z,11.99
2019-05-22T05:43:47.721Z,11.99
2019-05-22T05:44:47.697Z,11.97
2019-05-22T05:45:47.723Z,12.01
2019-05-22T05:46:47.805Z,11.99
2019-05-22T05:47:47.819Z,12.01
2019-05-22T05:48:47.874Z,11.99
2019-05-22T05:49:47.912Z,12.01
2019-05-22T05:50:48.079Z,11.93
2019-05-22T05:51:48.027Z,11.96
2019-05-22T05:52:48.078Z,12.04
2019-05-22T05:53:48.103Z,12.01
2019-05-22T05:54:48.149Z,12.01
2019-05-22T05:55:48.198Z,12.08
2019-05-22T05:56:48.249Z,11.99
2019-05-22T05:57:48.318Z,11.99
2019-05-22T05:58:48.337Z,11.99
2019-05-22T05:59:48.390Z,12.02
2019-05-22T06:00:48.435Z,12.05
2019-05-22T06:01:48.505Z,12.11
2019-05-22T06:02:56.490Z,12.09
2019-05-22T06:03:48.574Z,12.11
2019-05-22T06:04:48.619Z,12.08
2019-05-22T06:05:48.665Z,12.16
2019-05-22T06:06:48.723Z,12.11
2019-05-22T06:07:48.782Z,12.20
2019-05-22T06:08:48.807Z,12.26
2019-05-22T06:09:48.857Z,12.20
2019-05-22T06:10:48.907Z,12.26
2019-05-22T06:11:48.972Z,12.24
2019-05-22T06:12:49.103Z,12.26
2019-05-22T06:13:49.047Z,12.24
2019-05-22T06:14:49.093Z,12.15
2019-05-22T06:15:49.139Z,12.15
2019-05-22T06:16:49.212Z,12.20
2019-05-22T06:17:49.233Z,12.12
2019-05-22T06:18:49.312Z,12.09
2019-05-22T06:19:49.336Z,12.09
2019-05-22T06:21:03.227Z,12.08
2019-05-22T06:21:49.426Z,12.06
2019-05-22T06:22:49.495Z,12.02
2019-05-22T06:23:49.518Z,11.99
2019-05-22T06:24:49.682Z,11.99
2019-05-22T06:25:49.618Z,12.01
2019-05-22T06:26:49.659Z,12.09
2019-05-22T06:27:49.746Z,12.09
2019-05-22T06:28:49.766Z,12.16
2019-05-22T06:29:49.800Z,12.21
2019-05-22T06:30:49.868Z,12.12
2019-05-22T06:31:49.894Z,12.30
2019-05-22T06:32:49.968Z,12.30
2019-05-22T06:33:49.989Z,12.27
2019-05-22T06:34:50.036Z,12.27
2019-05-22T06:35:50.087Z,12.39
2019-05-22T06:36:50.133Z,12.26
2019-05-22T06:37:50.199Z,12.42
2019-05-22T06:38:50.240Z,12.38
2019-05-22T06:39:50.275Z,12.42
2019-05-22T06:40:50.344Z,12.24
2019-05-22T06:41:50.371Z,12.26
2019-05-22T06:42:50.493Z,12.39
2019-05-22T06:43:50.458Z,12.39
2019-05-22T06:44:50.530Z,12.41
2019-05-22T06:45:50.605Z,12.29
2019-05-22T06:46:50.616Z,12.42
2019-05-22T06:47:50.652Z,12.41
2019-05-22T06:48:50.698Z,12.33
2019-05-22T06:49:50.781Z,12.29
2019-05-22T06:50:50.816Z,12.27
2019-05-22T06:51:50.856Z,12.16
2019-05-22T06:52:50.886Z,12.13
2019-05-22T06:53:51.036Z,12.21
2019-05-22T06:54:51.033Z,12.29
2019-05-22T06:55:51.027Z,12.29
2019-05-22T06:56:51.091Z,12.24
2019-05-22T06:57:51.130Z,12.23
2019-05-22T06:58:51.174Z,12.30
2019-05-22T07:00:11.402Z,12.41
2019-05-22T07:00:51.279Z,12.39
2019-05-22T07:01:51.321Z,12.38
2019-05-22T07:02:51.362Z,12.48
2019-05-22T07:03:51.425Z,12.38
2019-05-22T07:04:51.625Z,12.37
2019-05-22T07:05:51.513Z,12.37
2019-05-22T07:06:51.551Z,12.45
2019-05-22T07:07:51.601Z,12.39
2019-05-22T07:08:51.648Z,12.39
2019-05-22T07:09:51.720Z,12.41
2019-05-22T07:10:51.741Z,12.46
2019-05-22T07:11:51.814Z,12.41
2019-05-22T07:12:51.840Z,12.56
2019-05-22T07:13:51.891Z,12.46
2019-05-22T07:14:51.992Z,12.45
2019-05-22T07:15:52.073Z,12.44
2019-05-22T07:16:52.025Z,12.37
2019-05-22T07:17:52.076Z,12.41
2019-05-22T07:18:52.123Z,12.41
2019-05-22T07:19:52.208Z,12.39
2019-05-22T07:20:52.449Z,12.45
2019-05-22T07:21:52.265Z,12.44
2019-05-22T07:22:52.325Z,12.39
2019-05-22T07:23:52.361Z,12.37
2019-05-22T07:24:52.412Z,12.26
2019-05-22T07:25:52.478Z,12.41
2019-05-22T07:26:52.521Z,12.30
2019-05-22T07:27:52.552Z,12.30
2019-05-22T07:28:52.596Z,12.27
2019-05-22T07:29:52.641Z,12.24
2019-05-22T07:30:52.724Z,12.38
2019-05-22T07:31:52.741Z,12.39
2019-05-22T07:32:52.784Z,12.42
2019-05-22T07:33:52.835Z,12.52
2019-05-22T07:34:52.882Z,12.49
2019-05-22T07:36:08.556Z,12.41
2019-05-22T07:36:52.982Z,12.41
2019-05-22T07:37:53.028Z,12.44
2019-05-22T07:38:53.070Z,12.31
2019-05-22T07:39:53.123Z,12.38
2019-05-22T07:40:53.184Z,12.34
2019-05-22T07:41:53.220Z,12.39
2019-05-22T07:42:53.258Z,12.37
2019-05-22T07:43:53.312Z,12.48
2019-05-22T07:44:53.377Z,12.51
2019-05-22T07:45:53.423Z,12.54
2019-05-22T07:46:53.450Z,12.52
2019-05-22T07:47:53.515Z,12.66
2019-05-22T07:48:53.557Z,12.46
2019-05-22T07:49:53.615Z,12.39
2019-05-22T07:50:53.665Z,12.44
2019-05-22T07:52:00.548Z,12.39
2019-05-22T07:52:53.732Z,12.41
2019-05-22T07:53:53.782Z,12.49
2019-05-22T07:54:53.839Z,12.49
2019-05-22T07:55:53.913Z,12.56
2019-05-22T07:56:53.945Z,12.44
2019-05-22T07:57:53.981Z,12.59
2019-05-22T07:58:54.026Z,12.69
2019-05-22T07:59:54.071Z,12.69
2019-05-22T08:00:54.122Z,12.81
2019-05-22T08:01:54.180Z,12.78
2019-05-22T08:02:54.213Z,12.79
2019-05-22T08:03:54.257Z,12.87
2019-05-22T08:04:54.312Z,12.97
2019-05-22T08:05:54.375Z,13.11
2019-05-22T08:06:54.441Z,13.17
2019-05-22T08:07:54.472Z,13.20
2019-05-22T08:08:54.500Z,13.11
2019-05-22T08:09:54.670Z,13.11
2019-05-22T08:10:54.712Z,13.17
2019-05-22T08:11:54.660Z,13.30
2019-05-22T08:12:54.708Z,13.36
2019-05-22T08:13:54.752Z,13.33
2019-05-22T08:14:54.786Z,13.55
2019-05-22T08:15:54.841Z,13.70
2019-05-22T08:16:54.909Z,13.83
2019-05-22T08:17:54.929Z,14.04
2019-05-22T08:18:54.990Z,13.98
2019-05-22T08:19:55.024Z,13.99
2019-05-22T08:20:55.086Z,14.21
2019-05-22T08:22:06.671Z,14.28
2019-05-22T08:22:55.183Z,14.27
2019-05-22T08:23:55.225Z,14.28
2019-05-22T08:24:55.270Z,14.35
2019-05-22T08:25:55.334Z,14.42
2019-05-22T08:26:55.413Z,14.53
2019-05-22T08:27:55.410Z,14.56
2019-05-22T08:28:55.469Z,14.53
2019-05-22T08:29:56.982Z,14.54
2019-05-22T08:30:55.564Z,14.64
2019-05-22T08:31:55.630Z,14.53
2019-05-22T08:32:55.702Z,14.37
2019-05-22T08:33:55.727Z,14.31
2019-05-22T08:34:55.755Z,14.16
2019-05-22T08:35:55.803Z,14.42
2019-05-22T08:36:55.855Z,14.42
2019-05-22T08:37:55.918Z,14.24
2019-05-22T08:38:55.990Z,14.27
2019-05-22T08:39:56.016Z,14.24
2019-05-22T08:40:56.052Z,14.17
2019-05-22T08:41:56.105Z,14.27
2019-05-22T08:42:56.179Z,14.37
2019-05-22T08:44:14.445Z,14.37
2019-05-22T08:44:56.256Z,14.44
2019-05-22T08:45:56.296Z,14.43
2019-05-22T08:46:56.350Z,14.31
2019-05-22T08:47:56.418Z,14.27
2019-05-22T08:48:56.440Z,14.19
2019-05-22T08:49:56.495Z,14.12
2019-05-22T08:50:56.548Z,14.02
2019-05-22T08:51:56.589Z,13.98
2019-05-22T08:52:56.672Z,13.88
2019-05-22T08:53:56.696Z,13.95
2019-05-22T08:54:56.756Z,13.98
2019-05-22T08:55:56.791Z,13.99
2019-05-22T08:56:56.837Z,14.17
2019-05-22T08:57:56.902Z,14.07
2019-05-22T08:58:56.951Z,14.06
2019-05-22T08:59:56.982Z,14.12
2019-05-22T09:00:57.037Z,14.16
2019-05-22T09:01:57.106Z,14.17
2019-05-22T09:02:57.176Z,14.27
2019-05-22T09:03:57.223Z,14.44
2019-05-22T09:04:57.233Z,14.62
2019-05-22T09:05:57.458Z,14.62
2019-05-22T09:06:57.324Z,14.78
2019-05-22T09:07:57.389Z,14.71
2019-05-22T09:08:57.446Z,14.91
2019-05-22T09:09:57.497Z,15.02
2019-05-22T09:10:57.541Z,14.80
2019-05-22T09:11:57.572Z,14.90
2019-05-22T09:12:57.703Z,14.91
2019-05-22T09:13:57.677Z,14.57
2019-05-22T09:14:57.733Z,14.46
2019-05-22T09:16:01.617Z,14.50
2019-05-22T09:16:57.823Z,14.47
2019-05-22T09:17:57.866Z,14.37
2019-05-22T09:18:57.925Z,14.29
2019-05-22T09:19:57.987Z,14.31
2019-05-22T09:20:58.017Z,14.29
2019-05-22T09:21:58.083Z,14.24
2019-05-22T09:22:58.117Z,14.35
2019-05-22T09:23:58.161Z,14.53
2019-05-22T09:24:58.229Z,14.56
2019-05-22T09:25:58.288Z,14.54
2019-05-22T09:27:02.159Z,14.65
2019-05-22T09:27:58.363Z,14.88
2019-05-22T09:28:58.415Z,15.24
2019-05-22T09:29:58.483Z,15.42
2019-05-22T09:30:58.527Z,15.43
2019-05-22T09:31:58.570Z,15.41
2019-05-22T09:32:58.608Z,15.48
2019-05-22T09:33:58.658Z,15.72
2019-05-22T09:34:58.736Z,15.82
2019-05-22T09:35:58.755Z,15.56
2019-05-22T09:36:58.815Z,15.41
2019-05-22T09:37:58.999Z,15.41
2019-05-22T09:38:58.906Z,15.42
2019-05-22T09:39:58.971Z,15.46
2019-05-22T09:40:59.023Z,15.01
2019-05-22T09:41:59.058Z,14.99
2019-05-22T09:42:59.108Z,15.03
2019-05-22T09:43:59.161Z,15.02
2019-05-22T09:44:59.248Z,15.11
2019-05-22T09:45:59.274Z,15.11
2019-05-22T09:46:59.301Z,15.11
2019-05-22T09:47:59.368Z,15.08
2019-05-22T09:48:59.409Z,15.08
2019-05-22T09:49:59.458Z,14.72
2019-05-22T09:50:59.524Z,14.75
2019-05-22T09:51:59.552Z,14.74
2019-05-22T09:52:59.601Z,14.83
2019-05-22T09:53:59.650Z,14.94
2019-05-22T09:54:59.700Z,14.74
2019-05-22T09:55:59.774Z,14.75
2019-05-22T09:56:59.799Z,14.68
2019-05-22T09:57:59.854Z,14.62
2019-05-22T09:58:59.910Z,14.68
2019-05-22T09:59:59.946Z,14.65
2019-05-22T10:01:00.015Z,14.74
2019-05-22T10:02:00.044Z,14.71
2019-05-22T10:03:00.097Z,14.80
2019-05-22T10:04:00.146Z,14.86
2019-05-22T10:05:00.409Z,14.72
2019-05-22T10:06:00.348Z,14.74
2019-05-22T10:07:00.291Z,14.37
2019-05-22T10:08:01.587Z,14.50
2019-05-22T10:09:00.392Z,14.65
2019-05-22T10:10:00.451Z,14.54
2019-05-22T10:11:00.516Z,14.60
2019-05-22T10:12:00.560Z,14.62
2019-05-22T10:13:00.603Z,14.75
2019-05-22T10:14:00.647Z,14.75
2019-05-22T10:15:01.436Z,14.71
2019-05-22T10:16:00.826Z,14.65
2019-05-22T10:17:00.806Z,14.60
2019-05-22T10:18:00.845Z,14.53
2019-05-22T10:19:00.896Z,14.47
2019-05-22T10:20:00.935Z,14.46
2019-05-22T10:21:00.991Z,14.50
2019-05-22T10:22:01.055Z,14.60
2019-05-22T10:23:14.180Z,14.72
2019-05-22T10:24:01.127Z,14.86
2019-05-22T10:25:15.039Z,14.91
2019-05-22T10:26:01.226Z,15.03
2019-05-22T10:27:01.316Z,14.99
2019-05-22T10:28:01.327Z,14.87
2019-05-22T10:29:01.376Z,14.80
2019-05-22T10:30:01.499Z,14.75
2019-05-22T10:31:01.902Z,14.69
2019-05-22T10:32:01.550Z,14.83
2019-05-22T10:33:01.585Z,14.64
2019-05-22T10:34:01.734Z,14.60
2019-05-22T10:35:01.685Z,14.56
2019-05-22T10:36:01.793Z,14.61
2019-05-22T10:37:01.800Z,14.56
2019-05-22T10:38:01.848Z,14.61
2019-05-22T10:39:01.914Z,14.67
2019-05-22T10:40:01.935Z,14.74
2019-05-22T10:41:01.999Z,14.71
2019-05-22T10:42:02.028Z,14.54
2019-05-22T10:43:02.153Z,14.60
2019-05-22T10:44:02.138Z,14.39
2019-05-22T10:45:02.169Z,14.44
2019-05-22T10:46:02.261Z,14.35
2019-05-22T10:47:02.272Z,14.47
2019-05-22T10:48:02.351Z,14.62
2019-05-22T10:49:02.369Z,14.62
2019-05-22T10:50:02.418Z,14.60
2019-05-22T10:51:02.463Z,14.75
2019-05-22T10:52:02.534Z,14.87
2019-05-22T10:53:02.594Z,15.01
2019-05-22T10:54:02.608Z,15.13
2019-05-22T10:55:02.674Z,15.23
2019-05-22T10:56:02.858Z,15.36
2019-05-22T10:57:02.779Z,15.45
2019-05-22T10:58:02.841Z,15.54
2019-05-22T10:59:02.895Z,15.49
2019-05-22T11:00:02.903Z,15.42
2019-05-22T11:01:02.967Z,15.11
2019-05-22T11:02:03.038Z,15.09
2019-05-22T11:03:03.088Z,15.15
2019-05-22T11:04:03.109Z,15.19
2019-05-22T11:05:03.156Z,15.21
2019-05-22T11:06:07.497Z,15.17
2019-05-22T11:07:03.255Z,15.19
2019-05-22T11:08:03.325Z,15.19
2019-05-22T11:09:03.382Z,15.21
2019-05-22T11:10:03.401Z,15.20
2019-05-22T11:11:03.458Z,15.19
2019-05-22T11:12:03.505Z,15.35
2019-05-22T11:13:03.547Z,15.38
2019-05-22T11:14:03.617Z,15.12
2019-05-22T11:15:03.645Z,14.84
2019-05-22T11:16:03.708Z,14.69
2019-05-22T11:17:03.760Z,14.60
2019-05-22T11:18:03.800Z,14.62
2019-05-22T11:19:03.885Z,14.64
2019-05-22T11:20:03.898Z,14.69
2019-05-22T11:21:03.945Z,14.83
2019-05-22T11:22:03.996Z,14.84
2019-05-22T11:23:04.042Z,14.98
2019-05-22T11:24:04.115Z,15.01
2019-05-22T11:25:04.223Z,14.86
2019-05-22T11:26:04.185Z,14.71
2019-05-22T11:27:04.783Z,14.87
2019-05-22T11:28:04.289Z,15.03
2019-05-22T11:29:04.376Z,15.24
2019-05-22T11:30:04.411Z,15.33
2019-05-22T11:31:04.521Z,15.51
2019-05-22T11:32:04.488Z,15.63
2019-05-22T11:33:04.533Z,16.06
2019-05-22T11:34:04.610Z,16.42
2019-05-22T11:35:04.634Z,16.80
2019-05-22T11:36:04.695Z,16.99
2019-05-22T11:37:04.739Z,17.25
2019-05-22T11:38:04.778Z,17.36
2019-05-22T11:39:04.854Z,17.25
2019-05-22T11:40:04.906Z,17.22
2019-05-22T11:41:04.931Z,17.22
2019-05-22T11:42:05.006Z,17.00
2019-05-22T11:43:05.051Z,16.85
2019-05-22T11:44:05.078Z,16.26
2019-05-22T11:45:05.167Z,16.26
2019-05-22T11:46:05.177Z,16.16
2019-05-22T11:47:05.229Z,16.41
2019-05-22T11:48:05.298Z,16.56
2019-05-22T11:49:05.336Z,16.53
2019-05-22T11:50:05.413Z,16.55
2019-05-22T11:51:05.430Z,16.59
2019-05-22T11:52:05.486Z,16.59
2019-05-22T11:53:05.526Z,16.60
2019-05-22T11:54:09.355Z,16.37
2019-05-22T11:55:05.648Z,16.49
2019-05-22T11:56:05.706Z,16.53
2019-05-22T11:57:05.729Z,16.44
2019-05-22T11:58:05.787Z,16.53
2019-05-22T11:59:05.834Z,16.63
2019-05-22T12:00:09.071Z,16.56
2019-05-22T12:01:05.978Z,16.53
2019-05-22T12:02:05.987Z,16.37
2019-05-22T12:03:06.037Z,16.16
2019-05-22T12:04:06.083Z,16.18
2019-05-22T12:05:06.190Z,15.97
2019-05-22T12:06:06.209Z,15.97
2019-05-22T12:07:06.234Z,16.22
2019-05-22T12:08:06.302Z,16.45
2019-05-22T12:09:06.395Z,16.44
2019-05-22T12:10:06.410Z,16.11
2019-05-22T12:11:06.492Z,16.11
2019-05-22T12:12:06.516Z,16.42
2019-05-22T12:13:06.550Z,16.45
2019-05-22T12:14:06.612Z,16.70
2019-05-22T12:15:06.637Z,16.78
2019-05-22T12:16:06.725Z,16.78
2019-05-22T12:17:06.762Z,16.96
2019-05-22T12:18:06.787Z,17.26
2019-05-22T12:19:06.839Z,17.40
2019-05-22T12:20:06.904Z,17.62
2019-05-22T12:21:07.020Z,17.84
2019-05-22T12:22:07.022Z,18.03
2019-05-22T12:23:07.173Z,18.15
2019-05-22T12:24:07.227Z,18.31
2019-05-22T12:25:07.152Z,18.00
2019-05-22T12:26:07.230Z,18.03
2019-05-22T12:27:07.375Z,18.22
2019-05-22T12:28:07.305Z,18.22
2019-05-22T12:29:07.353Z,18.50
2019-05-22T12:30:07.428Z,18.37
2019-05-22T12:31:07.458Z,18.55
2019-05-22T12:32:07.681Z,18.61
2019-05-22T12:33:13.320Z,18.79
2019-05-22T12:34:07.612Z,18.84
2019-05-22T12:35:07.665Z,18.83
2019-05-22T12:36:07.745Z,18.52
2019-05-22T12:37:07.768Z,18.73
2019-05-22T12:38:07.827Z,18.82
2019-05-22T12:39:07.936Z,19.11
2019-05-22T12:40:07.924Z,18.86
2019-05-22T12:41:08.009Z,18.95
2019-05-22T12:42:08.057Z,19.13
2019-05-22T12:43:08.086Z,19.01
2019-05-22T12:44:08.151Z,18.43
2019-05-22T12:45:08.201Z,18.10
2019-05-22T12:46:08.296Z,17.99
2019-05-22T12:47:08.327Z,17.81
2019-05-22T12:48:08.365Z,17.43
2019-05-22T12:49:09.133Z,17.53
2019-05-22T12:50:08.492Z,17.74
2019-05-22T12:51:08.513Z,18.06
2019-05-22T12:52:08.587Z,18.17
2019-05-22T12:53:08.617Z,18.27